Time;durP1;ratioP1;P1;durP2;ratioP2;P2;SDS_P1;SDS_P2;PMS_P1;PMS_P2;Temp;Humidity;BMP_temperature;BMP_pressure;BME280_temperature;BME280_humidity;BME280_pressure;Samples;Min_cycle;Max_cycle;Signal;HPM_P1;HPM_P2
2022/08/15 00:01:49;;;;;;;2.25;0.70;;;;;;;33.33;26.09;101092.47;4968877;28;20054;-76
2022/08/15 00:04:17;;;;;;;1.00;0.68;;;;;;;33.23;25.40;101090.44;4977528;28;20054;-76
2022/08/15 00:06:47;;;;;;;1.17;0.70;;;;;;;33.21;25.67;101090.53;4989780;28;20451;-78
2022/08/15 00:09:20;;;;;;;4.70;1.33;;;;;;;33.20;26.36;101086.13;4994390;28;20105;-76
2022/08/15 00:11:51;;;;;;;1.40;0.70;;;;;;;33.20;25.92;101087.97;4997877;28;20126;-75
2022/08/15 00:14:24;;;;;;;0.70;0.70;;;;;;;33.20;26.52;101080.78;4990413;28;20048;-76
2022/08/15 00:16:53;;;;;;;0.60;0.60;;;;;;;33.20;25.99;101085.28;4990240;28;20050;-75
2022/08/15 00:19:24;;;;;;;0.88;0.60;;;;;;;33.21;26.04;101071.75;4991481;28;20050;-82
2022/08/15 00:21:54;;;;;;;;;;;;;;;33.24;25.91;101068.91;4996048;28;20129;-74
2022/08/15 00:24:26;;;;;;;1.63;0.50;;;;;;;33.22;26.56;101072.66;4993916;28;19928;-76
2022/08/15 00:26:57;;;;;;;2.60;0.68;;;;;;;33.19;26.85;101073.66;4989258;28;20168;-76
2022/08/15 00:29:27;;;;;;;3.67;0.60;;;;;;;33.16;27.16;101069.34;4992525;28;20504;-76
2022/08/15 00:31:56;;;;;;;1.17;0.70;;;;;;;33.11;26.77;101066.09;4991332;28;20046;-77
2022/08/15 00:34:25;;;;;;;0.70;0.55;;;;;;;33.08;27.11;101066.28;4998208;28;20038;-77
2022/08/15 00:36:54;;;;;;;1.65;0.80;;;;;;;33.04;27.57;101061.16;5000884;28;20049;-77
2022/08/15 00:39:27;;;;;;;1.65;0.80;;;;;;;32.98;27.22;101057.88;4992970;28;20050;-78
2022/08/15 00:41:58;;;;;;;0.70;0.50;;;;;;;32.94;26.77;101058.16;4992303;28;20124;-76
2022/08/15 00:44:30;;;;;;;;;;;;;;;32.89;26.70;101057.56;5001574;28;20049;-75
2022/08/15 00:47:01;;;;;;;1.42;0.82;;;;;;;32.84;27.59;101052.50;4995568;28;20000;-74
2022/08/15 00:49:33;;;;;;;1.75;0.70;;;;;;;32.82;27.76;101056.22;4990187;28;20049;-73
2022/08/15 00:52:05;;;;;;;1.08;0.82;;;;;;;32.80;27.16;101055.44;4988149;28;20077;-76
2022/08/15 00:54:39;;;;;;;2.00;0.80;;;;;;;32.76;26.96;101050.28;5000124;28;20045;-73
2022/08/15 00:57:10;;;;;;;5.18;0.80;;;;;;;32.67;27.12;101053.50;4986604;28;20038;-75
2022/08/15 00:59:45;;;;;;;0.70;0.60;;;;;;;32.58;26.26;101051.34;4988935;28;20042;-76
2022/08/15 01:02:17;;;;;;;1.17;0.63;;;;;;;32.45;25.39;101048.47;4990241;28;20056;-74
2022/08/15 01:04:46;;;;;;;2.03;0.60;;;;;;;32.32;26.24;101034.94;4987999;28;20267;-78
2022/08/15 01:07:15;;;;;;;1.45;0.80;;;;;;;32.29;27.64;101044.97;4989621;28;20574;-76
2022/08/15 01:09:46;;;;;;;0.90;0.70;;;;;;;32.28;26.89;101046.78;4998939;28;20112;-77
2022/08/15 01:12:17;;;;;;;0.77;0.57;;;;;;;32.19;26.87;101039.28;4988089;28;20061;-78
2022/08/15 01:14:49;;;;;;;0.65;0.60;;;;;;;32.16;27.05;101038.56;4989116;28;20057;-73
2022/08/15 01:17:20;;;;;;;1.40;0.68;;;;;;;32.17;25.86;101037.63;4991389;28;20042;-76
2022/08/15 01:19:53;;;;;;;0.90;0.70;;;;;;;32.12;26.24;101035.22;4995838;28;20069;-73
2022/08/15 01:22:38;;;;;;;1.38;0.63;;;;;;;32.09;26.72;101032.69;4985212;28;20030;-75
2022/08/15 01:25:13;;;;;;;3.53;0.70;;;;;;;32.09;26.58;101043.41;4987329;28;20046;-74
2022/08/15 01:27:47;;;;;;;1.30;0.60;;;;;;;32.05;27.96;101031.16;4998419;28;20058;-81
2022/08/15 01:30:20;;;;;;;0.40;0.40;;;;;;;31.96;27.46;101031.66;4989045;28;20054;-77
2022/08/15 01:32:49;;;;;;;1.98;0.73;;;;;;;31.86;27.07;101029.44;4996312;28;20042;-75
2022/08/15 01:35:17;;;;;;;2.28;0.60;;;;;;;31.82;27.20;101029.72;4989427;28;20043;-73
2022/08/15 01:37:48;;;;;;;0.95;0.70;;;;;;;31.79;27.09;101036.09;4989101;28;20049;-76
2022/08/15 01:40:33;;;;;;;0.70;0.70;;;;;;;31.75;27.05;101029.22;4988017;28;20058;-73
2022/08/15 01:43:03;;;;;;;0.95;0.60;;;;;;;31.67;26.86;101026.94;4999855;28;20108;-75
2022/08/15 01:45:34;;;;;;;0.60;0.45;;;;;;;31.58;28.50;101023.91;4995286;28;20117;-76
2022/08/15 01:48:11;;;;;;;0.90;0.75;;;;;;;31.51;29.04;101021.56;4990880;28;20054;-72
2022/08/15 01:50:44;;;;;;;1.20;0.70;;;;;;;31.49;28.80;101022.59;4985915;28;20056;-76
2022/08/15 01:53:17;;;;;;;0.80;0.55;;;;;;;31.45;28.36;101021.91;4988336;28;20046;-74
2022/08/15 01:55:54;;;;;;;2.25;0.65;;;;;;;31.37;28.90;101013.38;4994658;28;20518;-75
2022/08/15 01:58:24;;;;;;;2.67;0.65;;;;;;;31.28;27.70;101019.22;4987845;28;20046;-76
2022/08/15 02:00:56;;;;;;;1.73;0.55;;;;;;;31.17;27.68;101011.75;4984334;28;20058;-81
2022/08/15 02:03:33;;;;;;;2.95;0.65;;;;;;;31.07;30.16;101010.53;4995191;28;20050;-75
2022/08/15 02:06:02;;;;;;;1.42;0.70;;;;;;;30.97;29.07;101014.63;4992912;28;20126;-75
2022/08/15 02:08:31;;;;;;;1.17;0.68;;;;;;;30.92;30.00;101011.31;4993834;28;20112;-77
2022/08/15 02:11:01;;;;;;;0.98;0.70;;;;;;;30.86;29.43;101018.72;4990970;28;20054;-75
2022/08/15 02:13:29;;;;;;;6.47;0.70;;;;;;;30.84;28.94;101009.91;4989211;28;20051;-77
2022/08/15 02:16:00;;;;;;;2.70;0.90;;;;;;;30.82;30.02;101010.91;4990702;28;20058;-77
2022/08/15 02:18:29;;;;;;;2.00;0.80;;;;;;;30.73;28.58;101008.72;4993883;28;20416;-77
2022/08/15 02:20:58;;;;;;;1.15;0.65;;;;;;;30.64;30.36;101012.69;4992700;28;20042;-75
2022/08/15 02:23:27;;;;;;;0.82;0.60;;;;;;;30.54;30.70;101016.78;5005863;28;20414;-76
2022/08/15 02:25:57;;;;;;;1.13;0.60;;;;;;;30.40;30.63;101025.47;4986946;28;20412;-73
2022/08/15 02:28:27;;;;;;;2.78;0.70;;;;;;;30.34;31.25;101025.78;4987741;28;20069;-76
2022/08/15 02:30:56;;;;;;;0.85;0.65;;;;;;;30.27;31.67;101020.72;4980261;28;20505;-75
2022/08/15 02:33:27;;;;;;;1.15;0.80;;;;;;;30.21;31.05;101010.31;4977976;28;20050;-74
2022/08/15 02:35:56;;;;;;;1.00;0.90;;;;;;;30.16;31.61;101012.34;4977689;28;20132;-76
2022/08/15 02:38:24;;;;;;;1.52;1.00;;;;;;;30.09;31.65;101007.38;4981524;28;20049;-75
2022/08/15 02:40:53;;;;;;;2.28;1.08;;;;;;;29.98;32.40;101013.22;4990810;28;20104;-75
2022/08/15 02:43:22;;;;;;;2.00;0.85;;;;;;;29.88;32.88;101007.47;4982691;28;20038;-75
2022/08/15 02:45:53;;;;;;;3.17;1.13;;;;;;;29.77;33.72;101010.63;4987076;28;20050;-75
2022/08/15 02:48:21;;;;;;;2.05;0.80;;;;;;;29.65;34.04;101008.50;4984709;28;20562;-73
2022/08/15 02:50:49;;;;;;;2.67;0.95;;;;;;;29.55;34.20;101005.41;4984755;28;20050;-75
2022/08/15 02:53:20;;;;;;;3.22;1.00;;;;;;;29.51;34.53;101019.81;4987627;28;20054;-76
2022/08/15 02:55:49;;;;;;;1.17;0.98;;;;;;;29.44;35.16;101013.88;4987807;28;20133;-76
2022/08/15 02:58:18;;;;;;;1.10;1.00;;;;;;;29.37;35.39;101020.44;4987886;28;20539;-75
2022/08/15 03:00:47;;;;;;;2.55;1.10;;;;;;;29.30;35.61;101015.41;4986112;28;20054;-74
2022/08/15 03:03:17;;;;;;;1.60;0.98;;;;;;;29.23;35.86;101023.72;4986155;28;20594;-76
2022/08/15 03:05:52;;;;;;;1.48;1.10;;;;;;;29.12;35.75;101023.31;4986457;28;20653;-76
2022/08/15 03:08:21;;;;;;;3.75;1.00;;;;;;;29.02;36.02;101024.59;4990241;28;20058;-75
2022/08/15 03:10:49;;;;;;;2.28;1.08;;;;;;;28.91;36.75;101025.09;4987182;28;20055;-75
2022/08/15 03:13:18;;;;;;;4.90;1.33;;;;;;;28.80;36.72;101027.34;4989423;28;20065;-76
2022/08/15 03:15:52;;;;;;;3.97;1.10;;;;;;;28.70;36.62;101021.53;4987191;28;20054;-75
2022/08/15 03:18:24;;;;;;;1.63;1.17;;;;;;;28.63;37.01;101036.00;4988106;28;20455;-76
2022/08/15 03:20:59;;;;;;;1.55;1.00;;;;;;;28.54;37.01;101037.28;4986349;28;20125;-75
2022/08/15 03:23:32;;;;;;;1.60;1.20;;;;;;;28.39;36.66;101025.41;4985959;28;20101;-75
2022/08/15 03:26:02;;;;;;;2.95;1.10;;;;;;;28.33;37.03;101044.28;4986016;28;20136;-79
2022/08/15 03:28:33;;;;;;;1.98;1.15;;;;;;;28.23;36.80;101045.59;4988610;28;20551;-77
2022/08/15 03:31:03;;;;;;;2.97;1.00;;;;;;;28.14;36.69;101043.28;4985470;28;20074;-75
2022/08/15 03:33:35;;;;;;;3.40;1.20;;;;;;;28.07;37.02;101052.44;4988611;28;20058;-74
2022/08/15 03:36:05;;;;;;;2.55;0.98;;;;;;;27.99;37.23;101048.28;4986436;28;20109;-76
2022/08/15 03:38:33;;;;;;;1.35;1.20;;;;;;;27.91;38.42;101046.84;4988049;28;20484;-73
2022/08/15 03:41:02;;;;;;;2.28;1.30;;;;;;;27.85;38.90;101047.06;4988792;28;20051;-73
2022/08/15 03:43:32;;;;;;;4.05;1.10;;;;;;;27.75;38.63;101052.69;4988574;28;20054;-73
2022/08/15 03:46:04;;;;;;;2.67;1.00;;;;;;;27.68;38.95;101056.50;4988364;28;20120;-73
2022/08/15 03:48:37;;;;;;;1.63;0.93;;;;;;;27.59;39.11;101051.53;4987319;28;20507;-75
2022/08/15 03:51:08;;;;;;;1.42;1.15;;;;;;;27.53;39.29;101068.59;4980568;28;20108;-76
2022/08/15 03:53:43;;;;;;;1.45;0.90;;;;;;;27.46;38.61;101059.06;4986379;28;20070;-74
2022/08/15 03:56:14;;;;;;;1.85;0.80;;;;;;;27.39;38.54;101062.88;4990726;28;20097;-74
2022/08/15 03:58:44;;;;;;;2.40;1.13;;;;;;;27.29;39.21;101067.66;4997473;28;20057;-76
2022/08/15 04:01:15;;;;;;;1.42;0.77;;;;;;;27.20;38.17;101065.31;4989156;28;20049;-72
2022/08/15 04:03:47;;;;;;;1.52;1.02;;;;;;;27.11;39.09;101070.94;4988460;28;20053;-74
2022/08/15 04:06:19;;;;;;;2.00;0.82;;;;;;;26.98;39.93;101062.50;4994145;28;20062;-74
2022/08/15 04:08:49;;;;;;;1.92;0.95;;;;;;;26.90;39.86;101073.38;4984305;28;20057;-74
2022/08/15 04:11:18;;;;;;;1.25;1.08;;;;;;;26.85;39.34;101085.97;4983129;28;20121;-77
2022/08/15 04:13:48;;;;;;;1.15;0.90;;;;;;;26.77;40.08;101082.66;4991158;28;20144;-78
2022/08/15 04:16:17;;;;;;;2.45;0.90;;;;;;;26.68;40.79;101075.88;4986134;28;20527;-82
2022/08/15 04:18:49;;;;;;;1.48;0.90;;;;;;;26.61;40.14;101078.78;4989899;28;20043;-75
2022/08/15 04:21:18;;;;;;;1.58;0.90;;;;;;;26.54;39.92;101076.31;4997560;28;20499;-74
2022/08/15 04:23:48;;;;;;;3.03;1.10;;;;;;;26.47;41.34;101082.69;4991632;28;20445;-74
2022/08/15 04:26:17;;;;;;;1.98;0.80;;;;;;;26.37;41.34;101089.22;4985297;28;20555;-77
2022/08/15 04:28:46;;;;;;;2.05;0.82;;;;;;;26.32;41.72;101091.16;4988407;28;20046;-75
2022/08/15 04:31:17;;;;;;;2.35;0.80;;;;;;;26.25;41.07;101085.19;4986755;28;20058;-75
2022/08/15 04:33:48;;;;;;;2.03;1.03;;;;;;;26.20;40.95;101091.50;4990625;28;20485;-74
2022/08/15 04:36:19;;;;;;;1.45;0.70;;;;;;;26.12;41.47;101089.97;4983391;28;20050;-76
2022/08/15 04:38:51;;;;;;;2.13;0.82;;;;;;;26.07;42.06;101081.28;4985342;28;20050;-80
2022/08/15 04:41:20;;;;;;;1.70;0.70;;;;;;;26.00;41.58;101085.03;4988587;28;20053;-73
2022/08/15 04:43:48;;;;;;;2.05;0.90;;;;;;;25.97;42.34;101086.91;4984608;28;20050;-73
2022/08/15 04:46:18;;;;;;;1.52;1.00;;;;;;;25.94;42.29;101089.66;4986842;28;20047;-73
2022/08/15 04:48:48;;;;;;;4.60;1.15;;;;;;;25.89;42.56;101087.13;4982985;28;20046;-73
2022/08/15 04:51:16;;;;;;;2.05;1.10;;;;;;;25.86;42.67;101089.81;4987692;28;20495;-74
2022/08/15 04:53:46;;;;;;;1.05;0.82;;;;;;;25.81;42.49;101089.09;4987534;28;20042;-75
2022/08/15 04:56:14;;;;;;;1.52;1.10;;;;;;;25.75;43.10;101089.25;4983923;28;20125;-75
2022/08/15 04:58:43;;;;;;;1.98;0.90;;;;;;;25.66;44.25;101090.41;4982526;28;20046;-73
2022/08/15 05:01:13;;;;;;;2.20;0.90;;;;;;;25.54;44.34;101088.97;4992935;28;20054;-75
2022/08/15 05:03:43;;;;;;;1.13;1.00;;;;;;;25.38;44.31;101092.91;4986668;28;20050;-80
2022/08/15 05:06:13;;;;;;;1.10;0.90;;;;;;;25.27;45.43;101099.38;4983379;28;20082;-75
2022/08/15 05:08:41;;;;;;;1.50;1.00;;;;;;;25.19;45.14;101095.19;4982695;28;20054;-73
2022/08/15 05:11:17;;;;;;;3.38;1.13;;;;;;;25.11;45.46;101092.72;4986370;28;20061;-75
2022/08/15 05:13:46;;;;;;;1.25;0.70;;;;;;;25.05;46.45;101087.56;4987065;28;20053;-75
2022/08/15 05:16:15;;;;;;;2.13;1.30;;;;;;;25.02;45.48;101099.09;4986279;28;20108;-75
2022/08/15 05:18:44;;;;;;;2.28;1.13;;;;;;;25.01;44.95;101101.78;4979096;28;20057;-72
2022/08/15 05:21:14;;;;;;;3.08;1.02;;;;;;;24.96;45.88;101098.38;4985030;28;20051;-75
2022/08/15 05:23:45;;;;;;;4.72;1.50;;;;;;;24.92;45.67;101102.88;4985460;28;20074;-71
2022/08/15 05:26:14;;;;;;;1.13;0.90;;;;;;;24.84;45.99;101105.72;4987918;28;20452;-76
2022/08/15 05:28:43;;;;;;;2.95;1.10;;;;;;;24.82;46.00;101114.59;4986227;28;20397;-72
2022/08/15 05:31:12;;;;;;;1.83;1.20;;;;;;;24.78;46.01;101105.84;4987976;28;20176;-73
2022/08/15 05:33:43;;;;;;;1.48;0.98;;;;;;;24.77;45.99;101100.63;4986041;28;20058;-72
2022/08/15 05:36:14;;;;;;;1.52;1.13;;;;;;;24.75;45.77;101105.94;4991367;28;20133;-73
2022/08/15 05:38:48;;;;;;;1.42;0.90;;;;;;;24.73;45.34;101101.59;4987270;28;20129;-73
2022/08/15 05:41:27;;;;;;;2.22;1.20;;;;;;;24.69;45.53;101105.22;4988222;28;20119;-74
2022/08/15 05:44:02;;;;;;;2.38;1.08;;;;;;;24.64;46.69;101105.31;4980860;28;20081;-76
2022/08/15 05:46:46;;;;;;;1.40;1.20;;;;;;;24.56;46.07;101102.00;4978355;28;20491;-80
2022/08/15 05:49:26;;;;;;;1.88;1.20;;;;;;;24.54;46.46;101117.03;4989784;28;20058;-75
2022/08/15 05:52:09;;;;;;;1.00;0.90;;;;;;;24.50;46.75;101105.63;4987274;28;20136;-74
2022/08/15 05:54:52;;;;;;;;;;;;;;;24.48;46.87;101112.72;4989383;28;20054;-78
2022/08/15 05:57:27;;;;;;;2.35;1.30;;;;;;;24.44;46.79;101114.56;4986700;28;20546;-74
2022/08/15 06:00:00;;;;;;;1.83;1.17;;;;;;;24.44;47.16;101111.91;4988465;28;20042;-75
2022/08/15 06:02:36;;;;;;;2.00;1.25;;;;;;;24.39;46.21;101112.91;4993043;28;20058;-75
2022/08/15 06:05:10;;;;;;;2.42;1.17;;;;;;;24.34;46.85;101105.06;4977744;28;20062;-76
2022/08/15 06:07:43;;;;;;;3.53;1.40;;;;;;;24.36;47.27;101119.13;4967856;28;20086;-72
2022/08/15 06:10:25;;;;;;;2.50;1.20;;;;;;;24.29;47.90;101121.97;4968798;28;20261;-75
2022/08/15 06:12:58;;;;;;;1.60;0.93;;;;;;;24.22;47.28;101123.84;4970035;28;20622;-76
2022/08/15 06:15:29;;;;;;;3.40;1.08;;;;;;;24.16;47.26;101119.56;4970838;28;20097;-76
2022/08/15 06:18:03;;;;;;;2.53;1.15;;;;;;;24.13;47.53;101126.69;4966232;28;20046;-76
2022/08/15 06:20:38;;;;;;;2.53;1.10;;;;;;;24.08;47.78;101123.28;4968750;28;20058;-74
2022/08/15 06:23:22;;;;;;;1.80;1.25;;;;;;;24.04;47.95;101125.09;4965833;28;20050;-74
2022/08/15 06:26:14;;;;;;;2.13;1.08;;;;;;;23.98;48.65;101126.13;4969380;28;20051;-75
2022/08/15 06:28:58;;;;;;;2.83;1.67;;;;;;;23.93;48.97;101125.31;4969687;28;20132;-75
2022/08/15 06:31:31;;;;;;;3.28;1.50;;;;;;;23.91;48.42;101126.25;4969235;28;20311;-75
2022/08/15 06:34:09;;;;;;;2.55;1.13;;;;;;;23.89;48.23;101117.47;4979292;28;20113;-76
2022/08/15 06:36:44;;;;;;;1.60;1.10;;;;;;;23.80;49.96;101124.72;4966631;28;20465;-76
2022/08/15 06:39:23;;;;;;;1.70;1.20;;;;;;;23.73;50.68;101117.78;4969290;28;20268;-77
2022/08/15 06:42:00;;;;;;;1.33;1.10;;;;;;;23.62;50.37;101125.88;4963703;28;20587;-74
2022/08/15 06:44:30;;;;;;;2.08;1.20;;;;;;;23.55;49.92;101123.41;4973819;28;20552;-75
2022/08/15 06:47:03;;;;;;;1.58;1.20;;;;;;;23.49;50.93;101120.88;4966605;28;20057;-76
2022/08/15 06:49:36;;;;;;;1.73;1.33;;;;;;;23.39;49.59;101128.94;4966892;28;20055;-76
2022/08/15 06:52:06;;;;;;;1.63;1.08;;;;;;;23.37;49.91;101135.16;4968932;28;20050;-75
2022/08/15 06:54:37;;;;;;;1.17;0.93;;;;;;;23.32;50.18;101135.25;4962052;28;20488;-76
2022/08/15 06:57:10;;;;;;;3.20;1.45;;;;;;;23.27;49.29;101128.28;4967414;28;20074;-78
2022/08/15 06:59:46;;;;;;;3.22;1.40;;;;;;;23.23;49.60;101137.13;4969052;28;20492;-77
2022/08/15 07:02:29;;;;;;;3.00;1.58;;;;;;;23.19;49.32;101134.56;4975230;28;20047;-79
2022/08/15 07:05:07;;;;;;;3.10;1.50;;;;;;;23.16;49.77;101132.00;4974338;28;20153;-78
2022/08/15 07:07:44;;;;;;;1.25;1.02;;;;;;;23.08;50.23;101133.00;4982193;28;20043;-77
2022/08/15 07:10:25;;;;;;;3.45;1.27;;;;;;;23.04;50.80;101142.72;4990250;28;20121;-76
2022/08/15 07:13:01;;;;;;;1.30;1.20;;;;;;;22.97;50.59;101146.31;4981092;28;20043;-77
2022/08/15 07:15:38;;;;;;;3.47;1.45;;;;;;;22.96;50.73;101139.31;4982439;28;20050;-78
2022/08/15 07:18:10;;;;;;;3.30;1.50;;;;;;;22.94;52.17;101146.38;4993073;28;20078;-79
2022/08/15 07:20:39;;;;;;;2.03;1.45;;;;;;;22.81;53.05;101145.69;4993213;28;20058;-81
2022/08/15 07:23:23;;;;;;;2.95;1.65;;;;;;;22.58;54.82;101140.75;4978620;28;20109;-80
2022/08/15 07:25:55;;;;;;;3.47;1.70;;;;;;;22.31;54.65;101148.16;4992431;28;20054;-74
2022/08/15 07:28:29;;;;;;;3.78;1.90;;;;;;;22.14;56.21;101150.09;4991560;28;20117;-76
2022/08/15 07:31:03;;;;;;;3.22;1.70;;;;;;;22.01;56.59;101151.13;4981047;28;20775;-74
2022/08/15 07:33:39;;;;;;;3.08;1.75;;;;;;;21.88;57.25;101145.13;4983152;28;20168;-75
2022/08/15 07:36:15;;;;;;;3.85;1.83;;;;;;;21.76;57.57;101167.19;4987241;28;20102;-75
2022/08/15 07:38:44;;;;;;;5.40;2.10;;;;;;;21.67;57.81;101168.16;4986159;28;20589;-76
2022/08/15 07:41:25;;;;;;;5.82;1.85;;;;;;;21.60;58.21;101173.50;4988450;28;20061;-76
2022/08/15 07:43:59;;;;;;;4.00;1.80;;;;;;;21.51;58.67;101170.06;4986320;28;20046;-78
2022/08/15 07:46:38;;;;;;;6.63;2.05;;;;;;;21.41;59.29;101171.03;4986579;28;20066;-74
2022/08/15 07:49:18;;;;;;;3.95;1.83;;;;;;;21.30;60.17;101175.47;4991690;28;20047;-75
2022/08/15 07:51:51;;;;;;;2.72;1.40;;;;;;;21.13;60.52;101171.22;4992393;28;20054;-75
2022/08/15 07:54:26;;;;;;;4.00;1.48;;;;;;;21.04;61.32;101166.03;4991579;28;20819;-72
2022/08/15 07:56:59;;;;;;;5.38;1.90;;;;;;;21.01;61.40;101166.06;4986181;28;20050;-75
2022/08/15 07:59:34;;;;;;;3.08;1.80;;;;;;;21.03;61.28;101166.91;4988041;28;20069;-74
2022/08/15 08:02:08;;;;;;;6.13;1.77;;;;;;;21.01;61.19;101160.78;4987444;28;20137;-75
2022/08/15 08:04:37;;;;;;;3.70;1.80;;;;;;;20.97;61.60;101164.31;4989269;28;20583;-78
2022/08/15 08:07:21;;;;;;;5.90;2.00;;;;;;;20.77;62.12;101166.22;4966563;28;20047;-77
2022/08/15 08:09:54;;;;;;;2.67;1.75;;;;;;;20.64;62.12;101171.53;4967960;28;20059;-74
2022/08/15 08:12:33;;;;;;;5.28;2.55;;;;;;;20.60;62.13;101171.56;4972009;28;20102;-73
2022/08/15 08:15:12;;;;;;;4.05;2.20;;;;;;;20.58;62.10;101173.34;4968396;28;20141;-75
2022/08/15 08:17:46;;;;;;;3.70;1.88;;;;;;;20.52;62.38;101171.56;4968145;28;20097;-75
2022/08/15 08:20:24;;;;;;;3.42;2.08;;;;;;;20.44;62.96;101168.09;4968845;28;20468;-77
2022/08/15 08:23:06;;;;;;;3.78;2.13;;;;;;;20.30;63.65;101166.41;4966815;28;20086;-74
2022/08/15 08:25:56;;;;;;;3.70;2.20;;;;;;;20.22;63.60;101168.19;4969836;28;20601;-75
2022/08/15 08:28:37;;;;;;;3.97;2.10;;;;;;;20.17;63.37;101164.69;4964456;28;20086;-74
2022/08/15 08:31:14;;;;;;;8.85;1.85;;;;;;;20.12;63.72;101166.47;4960950;28;20066;-75
2022/08/15 08:33:58;;;;;;;4.30;2.40;;;;;;;20.05;63.86;101151.63;4962679;28;20051;-73
2022/08/15 08:36:32;;;;;;;3.78;1.80;;;;;;;20.06;63.92;101155.97;4968602;28;20138;-73
2022/08/15 08:39:30;;;;;;;3.53;1.95;;;;;;;20.04;64.12;101153.38;4964029;28;20094;-74
2022/08/15 08:42:04;;;;;;;4.80;1.95;;;;;;;20.02;64.13;101151.59;4967136;28;20568;-74
2022/08/15 08:44:44;;;;;;;3.83;2.30;;;;;;;20.00;64.39;101159.50;4966811;28;20053;-74
2022/08/15 08:47:26;;;;;;;3.35;2.10;;;;;;;19.96;64.31;101157.75;4965285;28;20092;-74
2022/08/15 08:50:22;;;;;;;2.43;1.90;;;;;;;19.87;64.39;101156.03;4966890;28;20551;-72
2022/08/15 08:52:56;;;;;;;3.85;2.00;;;;;;;19.83;64.91;101159.53;4957724;28;20497;-73
2022/08/15 08:55:29;;;;;;;3.83;2.17;;;;;;;19.78;65.04;101161.31;4959712;28;20489;-74
2022/08/15 08:58:03;;;;;;;3.47;2.17;;;;;;;19.70;65.86;101163.09;4967694;28;20551;-75
2022/08/15 09:00:42;;;;;;;3.63;2.00;;;;;;;19.64;65.97;101165.69;4957538;28;20110;-72
2022/08/15 09:03:17;;;;;;;2.95;1.95;;;;;;;19.62;65.67;101151.69;4964189;28;20057;-74
2022/08/15 09:05:51;;;;;;;2.72;1.95;;;;;;;19.61;65.65;101157.81;4978792;28;20058;-75
2022/08/15 09:08:26;;;;;;;2.88;2.20;;;;;;;19.60;66.28;101156.06;4984600;28;20410;-73
2022/08/15 09:10:58;;;;;;;3.67;2.03;;;;;;;19.55;66.36;101149.94;4987368;28;20053;-74
2022/08/15 09:13:34;;;;;;;4.28;2.25;;;;;;;19.52;66.77;101152.59;4987352;28;20496;-74
2022/08/15 09:16:10;;;;;;;5.22;2.20;;;;;;;19.48;66.98;101151.69;4986504;28;20050;-73
2022/08/15 09:18:45;;;;;;;4.90;2.45;;;;;;;19.44;67.25;101144.69;4986877;28;20046;-73
2022/08/15 09:21:14;;;;;;;3.75;2.00;;;;;;;19.38;66.70;101150.84;4991500;28;20042;-74
2022/08/15 09:23:46;;;;;;;6.65;2.88;;;;;;;19.31;67.01;101143.84;4982398;28;20531;-75
2022/08/15 09:26:27;;;;;;;4.03;2.10;;;;;;;19.17;69.01;101145.56;4986242;28;20054;-78
2022/08/15 09:29:08;;;;;;;3.58;1.63;;;;;;;19.08;69.91;101145.56;4985558;28;20046;-76
2022/08/15 09:31:45;;;;;;;3.45;1.63;;;;;;;19.03;70.01;101146.47;4985381;28;20050;-75
2022/08/15 09:34:36;;;;;;;4.13;2.40;;;;;;;19.00;70.68;101149.06;4985306;28;20058;-75
2022/08/15 09:37:37;;;;;;;2.08;1.75;;;;;;;18.97;69.89;101143.81;4964679;28;20758;-73
2022/08/15 09:40:32;;;;;;;4.03;2.05;;;;;;;18.94;70.08;101143.81;4973991;28;20047;-73
2022/08/15 09:43:32;;;;;;;3.65;1.85;;;;;;;18.93;69.47;101147.31;4987501;28;20090;-73
2022/08/15 09:46:31;;;;;;;4.95;1.88;;;;;;;18.89;69.79;101142.06;4993613;28;20100;-73
2022/08/15 09:49:24;;;;;;;2.83;1.88;;;;;;;18.81;70.29;101131.56;4984794;28;20500;-73
2022/08/15 09:52:12;;;;;;;5.80;2.15;;;;;;;18.83;70.50;101145.56;4986081;28;20098;-74
2022/08/15 09:54:47;;;;;;;3.75;1.85;;;;;;;18.78;70.25;101148.19;4994512;28;20539;-73
2022/08/15 09:57:32;;;;;;;5.00;2.38;;;;;;;18.76;70.58;101149.88;4987794;28;20113;-73
2022/08/15 10:00:19;;;;;;;3.53;2.03;;;;;;;18.72;70.89;101147.25;4993877;28;20077;-73
2022/08/15 10:02:50;;;;;;;4.63;2.20;;;;;;;18.68;71.29;101158.59;4987032;28;20101;-73
2022/08/15 10:05:35;;;;;;;3.53;1.95;;;;;;;18.60;71.42;101155.97;4984204;28;20047;-75
2022/08/15 10:08:05;;;;;;;3.65;2.08;;;;;;;18.51;71.40;101159.44;4969497;28;20515;-73
2022/08/15 10:10:53;;;;;;;3.83;1.90;;;;;;;18.39;72.46;101159.38;4973069;28;20177;-78
2022/08/15 10:13:46;;;;;;;4.97;2.15;;;;;;;18.31;72.67;101161.97;4961404;28;20575;-73
2022/08/15 10:16:47;;;;;;;4.43;1.90;;;;;;;18.32;72.98;101162.84;4965879;28;20890;-72
2022/08/15 10:19:35;;;;;;;3.72;1.90;;;;;;;18.32;73.27;101168.06;4962243;28;20133;-73
2022/08/15 10:22:42;;;;;;;4.03;1.90;;;;;;;18.30;73.21;101161.94;4979444;28;20150;-73
2022/08/15 10:25:20;;;;;;;3.47;1.80;;;;;;;18.29;72.56;101163.69;4964463;28;20066;-72
2022/08/15 10:27:57;;;;;;;3.65;2.22;;;;;;;18.27;73.50;101167.19;4961128;28;20170;-73
2022/08/15 10:30:30;;;;;;;4.35;2.10;;;;;;;18.23;72.90;101168.91;4964319;28;20070;-75
2022/08/15 10:33:00;;;;;;;4.45;1.90;;;;;;;18.14;73.34;101161.91;4965930;28;20109;-74
2022/08/15 10:35:40;;;;;;;5.18;2.03;;;;;;;18.08;73.85;101164.47;4960199;28;20621;-76
2022/08/15 10:38:13;;;;;;;6.32;2.25;;;;;;;17.98;74.49;101162.66;4959376;28;20078;-77
2022/08/15 10:40:53;;;;;;;4.78;2.17;;;;;;;17.92;74.43;101165.25;4969341;28;20141;-74
2022/08/15 10:43:41;;;;;;;4.35;1.90;;;;;;;17.88;73.21;101166.97;4972656;28;20047;-73
2022/08/15 10:46:19;;;;;;;3.67;2.00;;;;;;;17.85;73.77;101171.34;4968251;28;20811;-72
2022/08/15 10:49:04;;;;;;;3.72;1.63;;;;;;;17.83;74.09;101170.44;4978297;28;20046;-74
2022/08/15 10:51:53;;;;;;;4.22;1.95;;;;;;;17.85;75.25;101173.94;4971109;28;20496;-74
2022/08/15 10:54:45;;;;;;;3.35;1.70;;;;;;;17.85;74.89;101171.34;4964625;28;20138;-73
2022/08/15 10:57:20;;;;;;;3.70;1.90;;;;;;;17.85;74.92;101172.19;4966899;28;20088;-74
2022/08/15 10:59:52;;;;;;;3.80;2.13;;;;;;;17.80;74.37;101169.53;4963142;28;20047;-74
2022/08/15 11:02:27;;;;;;;4.20;1.80;;;;;;;17.78;74.83;101160.78;4959386;28;20053;-73
2022/08/15 11:05:07;;;;;;;5.40;1.92;;;;;;;17.78;75.05;101159.91;4962978;28;20058;-74
2022/08/15 11:07:40;;;;;;;5.90;2.25;;;;;;;17.75;75.64;101160.78;4960761;28;20054;-75
2022/08/15 11:10:13;;;;;;;3.47;1.50;;;;;;;17.71;76.17;101156.38;4969320;28;20120;-73
2022/08/15 11:12:46;;;;;;;4.15;2.08;;;;;;;17.72;76.46;101167.72;4965606;28;20057;-74
2022/08/15 11:15:19;;;;;;;3.97;2.00;;;;;;;17.68;75.36;101164.19;4968740;28;20057;-73
2022/08/15 11:17:53;;;;;;;3.63;2.40;;;;;;;17.67;76.08;101170.31;4964251;28;20067;-72
2022/08/15 11:20:27;;;;;;;5.20;2.10;;;;;;;17.65;76.81;101164.19;4966151;28;20058;-72
2022/08/15 11:23:01;;;;;;;3.92;1.92;;;;;;;17.62;76.10;101158.94;4964856;28;20085;-73
2022/08/15 11:25:34;;;;;;;3.45;2.25;;;;;;;17.63;75.99;101165.91;4963949;28;20051;-72
2022/08/15 11:28:05;;;;;;;4.45;1.95;;;;;;;17.61;76.47;101162.41;4969113;28;20133;-72
2022/08/15 11:30:37;;;;;;;4.43;2.13;;;;;;;17.60;76.59;101163.28;4971307;28;20512;-72
2022/08/15 11:33:25;;;;;;;3.75;1.95;;;;;;;17.53;75.00;101164.97;4967016;28;20153;-73
2022/08/15 11:36:06;;;;;;;5.18;2.33;;;;;;;17.48;74.99;101157.97;4963696;28;20105;-73
2022/08/15 11:38:37;;;;;;;4.65;2.53;;;;;;;17.40;77.13;101151.78;4965593;28;20109;-75
2022/08/15 11:41:07;;;;;;;3.97;1.95;;;;;;;17.30;78.81;101156.94;4963231;28;20059;-73
2022/08/15 11:43:36;;;;;;;4.68;1.85;;;;;;;17.24;77.85;101156.88;4963997;28;20043;-73
2022/08/15 11:46:05;;;;;;;2.88;1.80;;;;;;;17.25;77.90;101162.97;4969326;28;20050;-73
2022/08/15 11:48:38;;;;;;;4.15;2.50;;;;;;;17.27;78.01;101166.50;4967479;28;20055;-72
2022/08/15 11:51:10;;;;;;;5.97;2.05;;;;;;;17.28;78.34;101163.03;4980442;28;20578;-73
2022/08/15 11:53:42;;;;;;;2.85;1.85;;;;;;;17.28;77.64;101157.81;4970868;28;20043;-72
2022/08/15 11:56:22;;;;;;;5.38;2.03;;;;;;;17.22;77.21;101153.38;4961268;28;20058;-73
2022/08/15 11:58:51;;;;;;;2.97;2.00;;;;;;;17.26;77.95;101157.78;4963264;28;20085;-72
2022/08/15 12:01:29;;;;;;;4.82;2.45;;;;;;;17.25;77.64;101149.91;4960454;28;20051;-72